Time;durP1;ratioP1;P1;durP2;ratioP2;P2;SDS_P1;SDS_P2;PMS_P1;PMS_P2;Temp;Humidity;BMP_temperature;BMP_pressure;BME280_temperature;BME280_humidity;BME280_pressure;Samples;Min_cycle;Max_cycle;Signal;HPM_P1;HPM_P2
2022/03/02 00:00:37;;;;;;;39.58;22.90;;;;;;;;;;5075975;28;20048;-49
2022/03/02 00:03:03;;;;;;;27.30;14.52;;;;;;;;;;5075170;28;20024;-49
2022/03/02 00:05:29;;;;;;;29.05;13.25;;;;;;;;;;5076032;28;20020;-47
2022/03/02 00:07:55;;;;;;;26.67;13.73;;;;;;;;;;5075810;28;20146;-48
2022/03/02 00:10:21;;;;;;;54.13;28.02;;;;;;;;;;5076060;28;20464;-48
2022/03/02 00:12:47;;;;;;;26.27;13.93;;;;;;;;;;5075893;28;20538;-49
2022/03/02 00:15:16;;;;;;;58.22;32.35;;;;;;;;;;5075803;28;20025;-50
2022/03/02 00:17:42;;;;;;;32.38;16.77;;;;;;;;;;5075799;28;20032;-47
2022/03/02 00:20:08;;;;;;;26.10;13.13;;;;;;;;;;5075547;28;20483;-48
2022/03/02 00:22:34;;;;;;;42.47;24.35;;;;;;;;;;5075257;28;20031;-47
2022/03/02 00:25:00;;;;;;;42.70;22.40;;;;;;;;;;5075549;28;20024;-47
2022/03/02 00:27:27;;;;;;;50.45;25.80;;;;;;;;;;5075671;28;20038;-47
2022/03/02 00:29:53;;;;;;;35.33;20.25;;;;;;;;;;5075613;28;20025;-47
2022/03/02 00:32:19;;;;;;;27.65;14.82;;;;;;;;;;5075355;28;20033;-45
2022/03/02 00:34:45;;;;;;;34.78;19.35;;;;;;;;;;5075507;28;20044;-47
2022/03/02 00:37:12;;;;;;;23.23;13.38;;;;;;;;;;5075330;28;20059;-47
2022/03/02 00:39:39;;;;;;;27.70;14.65;;;;;;;;;;5079899;28;20032;-48
2022/03/02 00:42:06;;;;;;;27.10;15.75;;;;;;;;;;5093963;28;20036;-46
2022/03/02 00:44:32;;;;;;;26.83;15.23;;;;;;;;;;5095363;28;20036;-47
2022/03/02 00:46:59;;;;;;;24.73;12.80;;;;;;;;;;5094952;28;20024;-45
2022/03/02 00:49:26;;;;;;;23.38;12.75;;;;;;;;;;5095400;28;20027;-47
2022/03/02 00:51:54;;;;;;;23.60;13.13;;;;;;;;;;5095103;28;20064;-46
2022/03/02 00:54:20;;;;;;;20.40;12.13;;;;;;;;;;5093887;28;20016;-46
2022/03/02 00:56:46;;;;;;;23.90;13.38;;;;;;;;;;5095388;28;20032;-49
2022/03/02 00:59:12;;;;;;;24.63;13.75;;;;;;;;;;5095254;28;20111;-48
2022/03/02 01:01:38;;;;;;;29.38;16.90;;;;;;;;;;5095005;28;20440;-47
2022/03/02 01:04:04;;;;;;;26.27;14.15;;;;;;;;;;5095102;28;20028;-48
2022/03/02 01:06:30;;;;;;;23.95;13.10;;;;;;;;;;5078242;28;20319;-48
2022/03/02 01:08:56;;;;;;;26.38;16.70;;;;;;;;;;5074791;28;20078;-48
2022/03/02 01:11:23;;;;;;;20.33;11.75;;;;;;;;;;5074632;28;20024;-48
2022/03/02 01:13:49;;;;;;;21.08;12.95;;;;;;;;;;5074863;28;20400;-47
2022/03/02 01:16:15;;;;;;;21.38;11.63;;;;;;;;;;5074707;28;20071;-47
2022/03/02 01:18:43;;;;;;;17.73;10.48;;;;;;;;;;5074690;28;20031;-47
2022/03/02 01:21:09;;;;;;;20.75;12.23;;;;;;;;;;5074442;28;20025;-46
2022/03/02 01:23:35;;;;;;;24.90;12.52;;;;;;;;;;5074424;28;20138;-48
2022/03/02 01:26:01;;;;;;;21.98;11.95;;;;;;;;;;5074495;28;20150;-49
2022/03/02 01:28:27;;;;;;;19.75;10.73;;;;;;;;;;5074597;28;20017;-47
2022/03/02 01:30:53;;;;;;;18.90;10.13;;;;;;;;;;5074201;28;20024;-47
2022/03/02 01:33:19;;;;;;;18.83;10.63;;;;;;;;;;5074386;28;20488;-48
2022/03/02 01:35:45;;;;;;;17.27;9.40;;;;;;;;;;5073995;28;20020;-48
2022/03/02 01:38:11;;;;;;;20.25;11.00;;;;;;;;;;5074003;28;20038;-48
2022/03/02 01:40:38;;;;;;;20.10;9.07;;;;;;;;;;5074190;28;20032;-48
2022/03/02 01:43:05;;;;;;;18.20;9.63;;;;;;;;;;5074097;28;20491;-48
2022/03/02 01:45:31;;;;;;;17.00;9.52;;;;;;;;;;5074135;28;20029;-48
2022/03/02 01:48:04;;;;;;;23.48;11.38;;;;;;;;;;5074356;28;20431;-48
2022/03/02 01:50:32;;;;;;;15.88;9.27;;;;;;;;;;5073936;28;20433;-47
2022/03/02 01:52:59;;;;;;;19.27;11.10;;;;;;;;;;5073799;28;20506;-48
2022/03/02 01:55:27;;;;;;;17.00;9.98;;;;;;;;;;5074084;28;20040;-49
2022/03/02 01:57:54;;;;;;;19.33;10.55;;;;;;;;;;5073919;28;20128;-48
2022/03/02 02:00:21;;;;;;;17.05;10.13;;;;;;;;;;5073489;28;20442;-49
2022/03/02 02:02:48;;;;;;;16.75;10.10;;;;;;;;;;5073781;28;20028;-47
2022/03/02 02:05:15;;;;;;;18.95;10.23;;;;;;;;;;5073337;28;20021;-47
2022/03/02 02:07:41;;;;;;;24.88;11.05;;;;;;;;;;5073578;28;20038;-47
2022/03/02 02:10:08;;;;;;;16.50;9.60;;;;;;;;;;5073823;28;20025;-48
2022/03/02 02:12:36;;;;;;;18.35;9.13;;;;;;;;;;5073751;28;20030;-48
2022/03/02 02:15:06;;;;;;;18.80;9.23;;;;;;;;;;5073661;28;20178;-48
2022/03/02 02:17:32;;;;;;;18.02;9.57;;;;;;;;;;5055486;28;20086;-48
2022/03/02 02:19:58;;;;;;;15.93;8.43;;;;;;;;;;5073683;28;20051;-48
2022/03/02 02:22:24;;;;;;;19.48;10.18;;;;;;;;;;5073357;28;20029;-48
2022/03/02 02:24:50;;;;;;;15.32;8.55;;;;;;;;;;5055172;28;20032;-48
2022/03/02 02:27:17;;;;;;;17.33;8.90;;;;;;;;;;5073418;28;20058;-47
2022/03/02 02:29:43;;;;;;;16.80;9.70;;;;;;;;;;5073346;28;20028;-46
2022/03/02 02:32:09;;;;;;;18.25;9.60;;;;;;;;;;5073390;28;20039;-48
2022/03/02 02:34:36;;;;;;;16.63;9.05;;;;;;;;;;5073368;28;20024;-48
2022/03/02 02:37:05;;;;;;;15.13;9.05;;;;;;;;;;5072990;28;20064;-48
2022/03/02 02:39:32;;;;;;;14.55;8.80;;;;;;;;;;5073737;28;20020;-47
2022/03/02 02:42:07;;;;;;;20.23;12.77;;;;;;;;;;5073383;28;20107;-47
2022/03/02 02:44:34;;;;;;;18.67;11.68;;;;;;;;;;5073272;28;20021;-48
2022/03/02 02:47:00;;;;;;;15.73;9.38;;;;;;;;;;5073164;28;20089;-47
2022/03/02 02:49:27;;;;;;;19.73;10.52;;;;;;;;;;5073249;28;20028;-48
2022/03/02 02:51:54;;;;;;;16.88;9.23;;;;;;;;;;5073005;28;20029;-47
2022/03/02 02:54:20;;;;;;;20.45;10.77;;;;;;;;;;5073078;28;20470;-48
2022/03/02 02:56:46;;;;;;;17.85;10.18;;;;;;;;;;5072882;28;20090;-47
2022/03/02 02:59:12;;;;;;;16.75;9.82;;;;;;;;;;5072904;28;20029;-47
2022/03/02 03:01:38;;;;;;;15.77;8.13;;;;;;;;;;5072691;28;20053;-47
2022/03/02 03:04:06;;;;;;;15.15;9.30;;;;;;;;;;5072883;28;20117;-49
2022/03/02 03:06:33;;;;;;;18.63;9.30;;;;;;;;;;5054710;28;20432;-49
2022/03/02 03:09:03;;;;;;;15.90;8.90;;;;;;;;;;5072776;28;20024;-49
2022/03/02 03:11:29;;;;;;;16.25;8.98;;;;;;;;;;5072952;28;20468;-49
2022/03/02 03:13:55;;;;;;;17.30;8.88;;;;;;;;;;5072911;28;20078;-49
2022/03/02 03:16:21;;;;;;;18.80;9.80;;;;;;;;;;5072768;28;20025;-48
2022/03/02 03:18:47;;;;;;;16.65;9.25;;;;;;;;;;5076416;28;20032;-47
2022/03/02 03:21:13;;;;;;;20.50;11.13;;;;;;;;;;5076537;28;20028;-47
2022/03/02 03:23:39;;;;;;;16.40;8.63;;;;;;;;;;5076601;28;20112;-48
2022/03/02 03:26:06;;;;;;;21.70;10.23;;;;;;;;;;5076656;28;20017;-48
2022/03/02 03:28:32;;;;;;;20.00;9.98;;;;;;;;;;5076775;28;20028;-47
2022/03/02 03:30:58;;;;;;;22.05;11.52;;;;;;;;;;5076637;28;20369;-47
2022/03/02 03:33:24;;;;;;;22.40;11.57;;;;;;;;;;5076627;28;20081;-48
2022/03/02 03:35:50;;;;;;;20.55;10.73;;;;;;;;;;5076627;28;20017;-46
2022/03/02 03:38:16;;;;;;;22.67;12.13;;;;;;;;;;5076578;28;20043;-48
2022/03/02 03:40:42;;;;;;;22.33;11.13;;;;;;;;;;5076722;28;20089;-47
2022/03/02 03:43:08;;;;;;;21.17;10.75;;;;;;;;;;5076371;28;20025;-48
2022/03/02 03:45:35;;;;;;;23.90;12.80;;;;;;;;;;5076626;28;20021;-48
2022/03/02 03:48:03;;;;;;;25.88;13.85;;;;;;;;;;5076399;28;20031;-48
2022/03/02 03:50:29;;;;;;;23.77;12.52;;;;;;;;;;5076453;28;20020;-48
2022/03/02 03:52:55;;;;;;;21.85;11.55;;;;;;;;;;5076020;28;20035;-48
2022/03/02 03:55:21;;;;;;;20.15;11.10;;;;;;;;;;5076231;28;20033;-49
2022/03/02 03:57:48;;;;;;;23.27;11.57;;;;;;;;;;5076077;28;20036;-48
2022/03/02 04:00:16;;;;;;;27.30;11.65;;;;;;;;;;5075850;28;20037;-48
2022/03/02 04:02:42;;;;;;;21.23;10.38;;;;;;;;;;5076269;28;20048;-50
2022/03/02 04:05:08;;;;;;;17.50;8.93;;;;;;;;;;5076128;28;20024;-48
2022/03/02 04:07:34;;;;;;;16.15;9.23;;;;;;;;;;5075907;28;20032;-48
2022/03/02 04:10:00;;;;;;;18.50;9.52;;;;;;;;;;5075919;28;20021;-48
2022/03/02 04:12:26;;;;;;;19.38;9.77;;;;;;;;;;5076052;28;20107;-48
2022/03/02 04:14:52;;;;;;;26.23;11.60;;;;;;;;;;5075985;28;20023;-48
2022/03/02 04:17:18;;;;;;;26.63;11.95;;;;;;;;;;5075587;28;20396;-48
2022/03/02 04:19:44;;;;;;;37.22;14.52;;;;;;;;;;5075698;28;20078;-47
2022/03/02 04:22:10;;;;;;;37.83;15.80;;;;;;;;;;5075464;28;20025;-48
2022/03/02 04:24:37;;;;;;;34.50;14.32;;;;;;;;;;5075547;28;20095;-49
2022/03/02 04:27:03;;;;;;;29.73;12.15;;;;;;;;;;5075712;28;20048;-48
2022/03/02 04:29:29;;;;;;;22.63;11.30;;;;;;;;;;5075125;28;20027;-48
2022/03/02 04:31:55;;;;;;;29.35;13.18;;;;;;;;;;5075421;28;20025;-48
2022/03/02 04:34:21;;;;;;;35.63;13.30;;;;;;;;;;5075517;28;20052;-48
2022/03/02 04:36:47;;;;;;;30.38;12.88;;;;;;;;;;5075156;28;20484;-49
2022/03/02 04:39:13;;;;;;;30.95;12.57;;;;;;;;;;5075489;28;20078;-49
2022/03/02 04:41:39;;;;;;;28.60;12.52;;;;;;;;;;5075262;28;20032;-49
2022/03/02 04:44:08;;;;;;;35.45;13.60;;;;;;;;;;5075145;28;20024;-49
2022/03/02 04:46:34;;;;;;;33.53;13.10;;;;;;;;;;5075398;28;20028;-48
2022/03/02 04:49:10;;;;;;;24.95;12.38;;;;;;;;;;5075295;28;20031;-48
2022/03/02 04:51:37;;;;;;;24.58;11.30;;;;;;;;;;5075128;28;20568;-50
2022/03/02 04:54:04;;;;;;;23.60;10.57;;;;;;;;;;5075010;28;20017;-48
2022/03/02 04:56:30;;;;;;;20.70;10.48;;;;;;;;;;5075020;28;20119;-47
2022/03/02 04:58:56;;;;;;;20.17;9.85;;;;;;;;;;5074870;28;20017;-47
2022/03/02 05:01:22;;;;;;;22.23;10.48;;;;;;;;;;5074552;28;20045;-48
2022/03/02 05:03:48;;;;;;;18.88;9.52;;;;;;;;;;5074889;28;20047;-47
2022/03/02 05:06:14;;;;;;;20.45;8.98;;;;;;;;;;5074651;28;20067;-48
2022/03/02 05:08:40;;;;;;;19.45;10.52;;;;;;;;;;5074753;28;20021;-47
2022/03/02 05:11:06;;;;;;;17.42;9.70;;;;;;;;;;5074738;28;20020;-46
2022/03/02 05:13:32;;;;;;;23.45;10.20;;;;;;;;;;5074684;28;20032;-47
2022/03/02 05:15:58;;;;;;;23.77;10.73;;;;;;;;;;5074651;28;20431;-48
2022/03/02 05:18:27;;;;;;;22.65;10.40;;;;;;;;;;5074569;28;20032;-47
2022/03/02 05:20:53;;;;;;;20.08;10.10;;;;;;;;;;5074546;28;20020;-47
2022/03/02 05:23:19;;;;;;;18.60;9.00;;;;;;;;;;5074351;28;20135;-46
2022/03/02 05:25:45;;;;;;;21.05;9.88;;;;;;;;;;5074348;28;20019;-47
2022/03/02 05:28:11;;;;;;;20.67;9.85;;;;;;;;;;5074554;28;20035;-46
2022/03/02 05:30:37;;;;;;;20.92;10.15;;;;;;;;;;5074246;28;20448;-48
2022/03/02 05:33:04;;;;;;;19.20;9.93;;;;;;;;;;5074336;28;20498;-49
2022/03/02 05:35:30;;;;;;;18.48;10.00;;;;;;;;;;5074311;28;20451;-45
2022/03/02 05:37:56;;;;;;;22.90;10.82;;;;;;;;;;5073952;28;20036;-47
2022/03/02 05:40:22;;;;;;;23.80;12.43;;;;;;;;;;5073718;28;20016;-46
2022/03/02 05:42:48;;;;;;;26.33;11.73;;;;;;;;;;5074243;28;20425;-49
2022/03/02 05:45:14;;;;;;;21.48;10.77;;;;;;;;;;5074175;28;20028;-49
2022/03/02 05:47:41;;;;;;;22.67;11.77;;;;;;;;;;5074063;28;20021;-49
2022/03/02 05:50:08;;;;;;;18.60;10.85;;;;;;;;;;5074037;28;20024;-52
2022/03/02 05:52:37;;;;;;;21.98;10.38;;;;;;;;;;5073781;28;20020;-54
2022/03/02 05:55:04;;;;;;;26.55;14.40;;;;;;;;;;5073301;28;20017;-52
2022/03/02 05:57:30;;;;;;;19.85;10.07;;;;;;;;;;5073432;28;20047;-51
2022/03/02 05:59:58;;;;;;;24.52;12.13;;;;;;;;;;5073647;28;20043;-52
2022/03/02 06:02:24;;;;;;;24.83;14.23;;;;;;;;;;5073635;28;20048;-53
2022/03/02 06:04:50;;;;;;;25.83;14.77;;;;;;;;;;5073537;28;20012;-50
2022/03/02 06:07:16;;;;;;;33.53;15.90;;;;;;;;;;5073519;28;20391;-53
2022/03/02 06:09:42;;;;;;;40.60;18.63;;;;;;;;;;5073694;28;20023;-53
2022/03/02 06:12:09;;;;;;;42.75;18.05;;;;;;;;;;5073521;28;20024;-49
2022/03/02 06:14:35;;;;;;;47.30;16.67;;;;;;;;;;5073654;28;20521;-51
2022/03/02 06:17:01;;;;;;;32.33;15.68;;;;;;;;;;5073496;28;20093;-52
2022/03/02 06:19:30;;;;;;;28.65;14.43;;;;;;;;;;5073383;28;20047;-53
2022/03/02 06:21:58;;;;;;;33.38;15.38;;;;;;;;;;5073194;28;20031;-55
2022/03/02 06:24:25;;;;;;;39.45;16.13;;;;;;;;;;5073412;28;20021;-54
2022/03/02 06:26:51;;;;;;;30.50;14.20;;;;;;;;;;5073621;28;20493;-55
2022/03/02 06:29:17;;;;;;;32.97;14.68;;;;;;;;;;5073435;28;20028;-53
2022/03/02 06:31:43;;;;;;;30.98;14.63;;;;;;;;;;5073183;28;20146;-52
2022/03/02 06:34:09;;;;;;;29.67;14.77;;;;;;;;;;5073356;28;20063;-52
2022/03/02 06:36:35;;;;;;;30.13;14.98;;;;;;;;;;5073137;28;20116;-52
2022/03/02 06:39:05;;;;;;;31.58;16.08;;;;;;;;;;5073152;28;20020;-54
2022/03/02 06:41:31;;;;;;;34.33;16.48;;;;;;;;;;5073461;28;20035;-54
2022/03/02 06:44:15;;;;;;;39.80;17.15;;;;;;;;;;5073219;28;20024;-55
2022/03/02 06:46:48;;;;;;;35.92;17.27;;;;;;;;;;5073709;28;20028;-55
2022/03/02 06:49:25;;;;;;;31.48;15.70;;;;;;;;;;5072945;28;20020;-48
2022/03/02 06:51:53;;;;;;;24.88;13.90;;;;;;;;;;5073029;28;20062;-53
2022/03/02 06:54:29;;;;;;;24.80;14.73;;;;;;;;;;5072919;28;20052;-52
2022/03/02 06:56:56;;;;;;;30.75;14.70;;;;;;;;;;5072757;28;20033;-50
2022/03/02 06:59:30;;;;;;;30.08;14.65;;;;;;;;;;5055081;28;20086;-47
2022/03/02 07:01:59;;;;;;;24.45;13.93;;;;;;;;;;5072677;28;20558;-52
2022/03/02 07:04:25;;;;;;;35.00;13.73;;;;;;;;;;5072881;28;20074;-52
2022/03/02 07:06:55;;;;;;;21.20;12.45;;;;;;;;;;5072948;28;20103;-54
2022/03/02 07:09:22;;;;;;;19.42;10.45;;;;;;;;;;5054594;28;20028;-50
2022/03/02 07:11:48;;;;;;;16.42;9.70;;;;;;;;;;5072920;28;20025;-51
2022/03/02 07:14:15;;;;;;;18.27;10.50;;;;;;;;;;5072958;28;20079;-52
2022/03/02 07:16:45;;;;;;;16.35;10.18;;;;;;;;;;5072617;28;20086;-53
2022/03/02 07:19:12;;;;;;;17.23;9.77;;;;;;;;;;5072780;28;20024;-51
2022/03/02 07:21:40;;;;;;;20.75;11.35;;;;;;;;;;5072980;28;20440;-54
2022/03/02 07:24:10;;;;;;;28.45;12.55;;;;;;;;;;5072692;28;20025;-48
2022/03/02 07:26:36;;;;;;;16.17;10.20;;;;;;;;;;5072698;28;20490;-53
2022/03/02 07:29:05;;;;;;;15.07;9.73;;;;;;;;;;5072875;28;20500;-51
2022/03/02 07:31:32;;;;;;;14.10;9.57;;;;;;;;;;5072662;28;20028;-50
2022/03/02 07:34:02;;;;;;;19.70;10.82;;;;;;;;;;5072793;28;20063;-54
2022/03/02 07:36:28;;;;;;;18.60;11.07;;;;;;;;;;5072575;28;20099;-54
2022/03/02 07:38:54;;;;;;;15.63;9.93;;;;;;;;;;5072464;28;20037;-50
2022/03/02 07:41:20;;;;;;;19.13;10.60;;;;;;;;;;5072572;28;20021;-52
2022/03/02 07:43:47;;;;;;;16.00;10.15;;;;;;;;;;5072523;28;20032;-53
2022/03/02 07:46:14;;;;;;;17.40;10.88;;;;;;;;;;5072605;28;20179;-53
2022/03/02 07:48:40;;;;;;;14.80;9.90;;;;;;;;;;5072769;28;20077;-51
2022/03/02 07:51:07;;;;;;;16.02;11.07;;;;;;;;;;5072563;28;20028;-51
2022/03/02 07:53:38;;;;;;;15.43;10.60;;;;;;;;;;5072526;28;20020;-53
2022/03/02 07:56:04;;;;;;;16.88;10.40;;;;;;;;;;5072630;28;20025;-51
2022/03/02 07:58:30;;;;;;;18.77;11.50;;;;;;;;;;5072514;28;20036;-51
2022/03/02 08:00:59;;;;;;;15.07;10.73;;;;;;;;;;5072083;28;20068;-50
2022/03/02 08:03:27;;;;;;;21.20;12.95;;;;;;;;;;5073836;28;20033;-53
2022/03/02 08:05:55;;;;;;;27.55;17.83;;;;;;;;;;5076028;28;20100;-54
2022/03/02 08:08:21;;;;;;;13.68;10.98;;;;;;;;;;5076050;28;20443;-54
2022/03/02 08:10:47;;;;;;;14.63;8.90;;;;;;;;;;5075887;28;20119;-53
2022/03/02 08:13:14;;;;;;;10.52;8.18;;;;;;;;;;5075701;28;20120;-48
2022/03/02 08:15:41;;;;;;;14.52;11.25;;;;;;;;;;5057832;28;20440;-52
2022/03/02 08:18:07;;;;;;;12.70;10.45;;;;;;;;;;5075809;28;20060;-54
2022/03/02 08:20:35;;;;;;;22.65;15.70;;;;;;;;;;5075686;28;20020;-54
2022/03/02 08:23:05;;;;;;;13.02;9.38;;;;;;;;;;5075708;28;20434;-54
2022/03/02 08:25:33;;;;;;;12.95;9.25;;;;;;;;;;5075639;28;20035;-53
2022/03/02 08:28:01;;;;;;;20.92;16.00;;;;;;;;;;5075766;28;20108;-50
2022/03/02 08:30:33;;;;;;;36.65;24.30;;;;;;;;;;5074820;28;20025;-45
2022/03/02 08:33:01;;;;;;;32.97;20.60;;;;;;;;;;5074451;28;20044;-47
2022/03/02 08:35:28;;;;;;;31.83;25.92;;;;;;;;;;5072616;28;20424;-51
2022/03/02 08:37:54;;;;;;;15.38;11.98;;;;;;;;;;5074951;28;20115;-45
2022/03/02 08:40:20;;;;;;;19.08;13.68;;;;;;;;;;5074599;28;20027;-51
2022/03/02 08:42:49;;;;;;;17.75;12.98;;;;;;;;;;5074177;28;20446;-53
2022/03/02 08:45:16;;;;;;;18.83;12.18;;;;;;;;;;5072804;28;20381;-53
2022/03/02 08:47:44;;;;;;;37.42;20.58;;;;;;;;;;5074417;28;20081;-56
2022/03/02 08:50:11;;;;;;;17.23;10.15;;;;;;;;;;5074476;28;20095;-55
2022/03/02 08:52:37;;;;;;;17.60;10.60;;;;;;;;;;5074174;28;20025;-50
2022/03/02 08:55:09;;;;;;;16.80;9.25;;;;;;;;;;5073825;28;20409;-49
2022/03/02 08:57:39;;;;;;;15.52;7.95;;;;;;;;;;5072437;28;20115;-47
2022/03/02 09:00:07;;;;;;;18.98;9.57;;;;;;;;;;5073900;28;20039;-47
2022/03/02 09:02:35;;;;;;;13.95;8.77;;;;;;;;;;5073766;28;20064;-51
2022/03/02 09:05:02;;;;;;;13.93;7.90;;;;;;;;;;5074289;28;20103;-53
2022/03/02 09:07:28;;;;;;;15.68;8.85;;;;;;;;;;5075014;28;20111;-53
2022/03/02 09:09:55;;;;;;;31.30;21.23;;;;;;;;;;5074841;28;20020;-45
2022/03/02 09:12:21;;;;;;;18.85;11.55;;;;;;;;;;5074853;28;20066;-54
2022/03/02 09:14:49;;;;;;;23.38;13.07;;;;;;;;;;5073814;28;20059;-54
2022/03/02 09:17:21;;;;;;;30.58;22.00;;;;;;;;;;5074631;28;20060;-53
2022/03/02 09:19:47;;;;;;;13.02;7.90;;;;;;;;;;5074861;28;20409;-50
2022/03/02 09:22:13;;;;;;;17.63;6.70;;;;;;;;;;5074614;28;20025;-51
2022/03/02 09:24:39;;;;;;;8.43;6.03;;;;;;;;;;5074301;28;20365;-53
2022/03/02 09:27:08;;;;;;;14.10;7.03;;;;;;;;;;5074508;28;20484;-50
2022/03/02 09:29:38;;;;;;;12.35;7.80;;;;;;;;;;5074526;28;20021;-46
2022/03/02 09:32:04;;;;;;;15.20;7.95;;;;;;;;;;5056487;28;20029;-53
2022/03/02 09:34:30;;;;;;;15.52;8.25;;;;;;;;;;5074290;28;20029;-47
2022/03/02 09:36:58;;;;;;;13.45;7.15;;;;;;;;;;5074157;28;20151;-49
2022/03/02 09:39:24;;;;;;;14.77;6.97;;;;;;;;;;5074034;28;20146;-47
2022/03/02 09:42:00;;;;;;;10.38;7.05;;;;;;;;;;5073991;28;20024;-45
2022/03/02 09:44:30;;;;;;;10.80;6.65;;;;;;;;;;5074223;28;20365;-50
2022/03/02 09:46:56;;;;;;;15.38;7.28;;;;;;;;;;5074208;28;20024;-53
2022/03/02 09:49:23;;;;;;;13.18;8.05;;;;;;;;;;5074109;28;20037;-49
2022/03/02 09:51:51;;;;;;;14.05;6.57;;;;;;;;;;5073898;28;20025;-49
2022/03/02 09:54:20;;;;;;;13.90;6.85;;;;;;;;;;5073736;28;20024;-53
2022/03/02 09:56:49;;;;;;;12.57;6.80;;;;;;;;;;5073748;28;20021;-46
2022/03/02 09:59:17;;;;;;;11.73;7.00;;;;;;;;;;5074003;28;20032;-48
2022/03/02 10:01:44;;;;;;;17.40;7.00;;;;;;;;;;5073363;28;20119;-51
2022/03/02 10:04:18;;;;;;;10.70;6.40;;;;;;;;;;5073788;28;20472;-49
2022/03/02 10:06:45;;;;;;;16.45;9.13;;;;;;;;;;5073400;28;20477;-51
2022/03/02 10:09:13;;;;;;;19.33;8.52;;;;;;;;;;5073484;28;20028;-55
2022/03/02 10:11:50;;;;;;;17.08;8.60;;;;;;;;;;5073465;28;20468;-48
2022/03/02 10:14:18;;;;;;;18.08;9.40;;;;;;;;;;5073596;28;20104;-50
2022/03/02 10:16:45;;;;;;;19.80;11.27;;;;;;;;;;5073632;28;20048;-53
2022/03/02 10:19:20;;;;;;;19.83;13.38;;;;;;;;;;5073372;28;20111;-53
2022/03/02 10:21:52;;;;;;;24.02;14.32;;;;;;;;;;5073403;28;20052;-55
2022/03/02 10:24:20;;;;;;;19.80;12.05;;;;;;;;;;5073245;28;20024;-54
2022/03/02 10:26:50;;;;;;;14.38;9.82;;;;;;;;;;5073233;28;20099;-52
2022/03/02 10:29:40;;;;;;;23.38;12.60;;;;;;;;;;5073337;28;20025;-52
2022/03/02 10:32:09;;;;;;;24.15;13.05;;;;;;;;;;5073270;28;20094;-45
2022/03/02 10:35:01;;;;;;;21.50;13.65;;;;;;;;;;5073197;28;20033;-52
2022/03/02 10:37:33;;;;;;;27.88;15.68;;;;;;;;;;5070298;28;20049;-53
2022/03/02 10:40:12;;;;;;;25.70;10.70;;;;;;;;;;5073159;28;20021;-45
2022/03/02 10:42:39;;;;;;;27.15;11.90;;;;;;;;;;5072998;28;20032;-48
2022/03/02 10:45:14;;;;;;;19.70;11.15;;;;;;;;;;5073123;28;20020;-54
2022/03/02 10:48:00;;;;;;;13.88;8.32;;;;;;;;;;5073140;28;20527;-55
2022/03/02 10:50:30;;;;;;;26.55;15.63;;;;;;;;;;5073148;28;20024;-57
2022/03/02 10:52:57;;;;;;;22.58;12.68;;;;;;;;;;5072969;28;20052;-53
2022/03/02 10:55:24;;;;;;;22.92;11.45;;;;;;;;;;5072927;28;20025;-56
2022/03/02 10:57:51;;;;;;;25.30;13.75;;;;;;;;;;5072951;28;20068;-54
2022/03/02 11:00:19;;;;;;;28.10;16.60;;;;;;;;;;5072743;28;20543;-56
2022/03/02 11:02:48;;;;;;;38.42;20.50;;;;;;;;;;5072971;28;20115;-50
2022/03/02 11:05:19;;;;;;;62.10;35.80;;;;;;;;;;5072934;28;20464;-54
2022/03/02 11:07:46;;;;;;;40.53;20.20;;;;;;;;;;5073112;28;20484;-51
2022/03/02 11:10:13;;;;;;;41.78;24.90;;;;;;;;;;5073126;28;20029;-54
2022/03/02 11:12:43;;;;;;;58.00;34.25;;;;;;;;;;5072994;28;20421;-50
2022/03/02 11:15:09;;;;;;;43.92;24.27;;;;;;;;;;5073064;28;20078;-53
2022/03/02 11:17:39;;;;;;;25.17;15.98;;;;;;;;;;5072811;28;20071;-55
2022/03/02 11:20:09;;;;;;;27.83;14.13;;;;;;;;;;5072666;28;20032;-55
2022/03/02 11:22:36;;;;;;;31.00;12.40;;;;;;;;;;5072568;28;20036;-53
2022/03/02 11:25:03;;;;;;;33.33;15.45;;;;;;;;;;5072577;28;20032;-51
2022/03/02 11:27:40;;;;;;;56.38;19.67;;;;;;;;;;5072871;28;20024;-55
2022/03/02 11:30:06;;;;;;;31.23;14.93;;;;;;;;;;5054669;28;20380;-60
2022/03/02 11:32:33;;;;;;;32.65;16.25;;;;;;;;;;5071640;28;20126;-55
2022/03/02 11:35:00;;;;;;;35.85;21.40;;;;;;;;;;5060991;28;20025;-57
2022/03/02 11:37:28;;;;;;;14.02;7.70;;;;;;;;;;5072119;28;20438;-49
2022/03/02 11:39:54;;;;;;;19.20;11.27;;;;;;;;;;5057333;28;20415;-56
2022/03/02 11:42:27;;;;;;;14.25;9.02;;;;;;;;;;5076121;28;20480;-52
2022/03/02 11:44:57;;;;;;;18.48;10.68;;;;;;;;;;5074066;28;20036;-55
2022/03/02 11:47:25;;;;;;;25.63;17.33;;;;;;;;;;5075157;28;20030;-49
2022/03/02 11:49:55;;;;;;;42.47;27.95;;;;;;;;;;5075457;28;20999;-52
2022/03/02 11:52:21;;;;;;;34.25;19.10;;;;;;;;;;5073505;28;20024;-47
2022/03/02 11:54:52;;;;;;;30.70;18.10;;;;;;;;;;5075153;28;20103;-52
2022/03/02 11:57:18;;;;;;;22.20;12.10;;;;;;;;;;5075403;28;20028;-48
2022/03/02 11:59:46;;;;;;;27.75;18.00;;;;;;;;;;5075176;28;20447;-54
2022/03/02 12:02:22;;;;;;;30.73;18.05;;;;;;;;;;5075369;28;20048;-51
2022/03/02 12:04:58;;;;;;;18.73;11.05;;;;;;;;;;5076177;28;20036;-48
2022/03/02 12:07:26;;;;;;;16.85;9.98;;;;;;;;;;5076040;28;20020;-51
2022/03/02 12:09:52;;;;;;;16.77;9.38;;;;;;;;;;5075708;28;20421;-52
2022/03/02 12:12:22;;;;;;;13.05;8.25;;;;;;;;;;5075973;28;20056;-50
2022/03/02 12:14:49;;;;;;;13.68;7.72;;;;;;;;;;5075958;28;20070;-52
2022/03/02 12:17:26;;;;;;;18.35;7.38;;;;;;;;;;5075760;28;20552;-54
2022/03/02 12:19:59;;;;;;;11.55;7.00;;;;;;;;;;5075861;28;20029;-51
2022/03/02 12:22:35;;;;;;;15.23;8.13;;;;;;;;;;5075867;28;20149;-50
2022/03/02 12:25:02;;;;;;;14.10;7.88;;;;;;;;;;5075552;28;20167;-54
2022/03/02 12:27:28;;;;;;;18.98;8.38;;;;;;;;;;5075481;28;20031;-50
2022/03/02 12:29:59;;;;;;;11.10;7.15;;;;;;;;;;5075491;28;20032;-49
2022/03/02 12:32:29;;;;;;;22.70;7.47;;;;;;;;;;5075406;28;20028;-50
2022/03/02 12:34:59;;;;;;;12.65;6.93;;;;;;;;;;5075380;28;20025;-48
2022/03/02 12:37:26;;;;;;;11.57;6.53;;;;;;;;;;5075312;28;20052;-50
2022/03/02 12:39:52;;;;;;;15.88;7.25;;;;;;;;;;5075342;28;20033;-49
2022/03/02 12:42:18;;;;;;;13.45;7.53;;;;;;;;;;5075656;28;20082;-51
2022/03/02 12:44:54;;;;;;;17.45;8.50;;;;;;;;;;5075404;28;20024;-53
2022/03/02 12:47:21;;;;;;;16.70;7.55;;;;;;;;;;5075150;28;20100;-52
2022/03/02 12:49:50;;;;;;;17.65;8.52;;;;;;;;;;5074998;28;20460;-54
2022/03/02 12:52:17;;;;;;;10.27;6.97;;;;;;;;;;5075030;28;20101;-50
2022/03/02 12:54:44;;;;;;;15.40;8.27;;;;;;;;;;5074903;28;20029;-54
2022/03/02 12:57:11;;;;;;;14.23;7.20;;;;;;;;;;5074899;28;20107;-52
2022/03/02 12:59:37;;;;;;;10.68;6.38;;;;;;;;;;5056982;28;20033;-50
2022/03/02 13:02:04;;;;;;;13.15;6.38;;;;;;;;;;5074894;28;20189;-47
2022/03/02 13:04:37;;;;;;;11.57;6.22;;;;;;;;;;5074961;28;20056;-47
2022/03/02 13:07:12;;;;;;;9.88;6.45;;;;;;;;;;5074809;28;20100;-53
2022/03/02 13:09:46;;;;;;;10.63;6.68;;;;;;;;;;5074551;28;20033;-50
2022/03/02 13:12:31;;;;;;;12.75;6.72;;;;;;;;;;5074732;28;20055;-51
2022/03/02 13:15:01;;;;;;;12.55;7.45;;;;;;;;;;5074949;28;20028;-53
2022/03/02 13:17:27;;;;;;;9.85;6.32;;;;;;;;;;5074517;28;20095;-53
2022/03/02 13:19:55;;;;;;;15.65;6.45;;;;;;;;;;5074512;28;20503;-52
2022/03/02 13:22:25;;;;;;;16.23;7.93;;;;;;;;;;5074546;28;20361;-53
2022/03/02 13:24:53;;;;;;;14.10;7.57;;;;;;;;;;5074518;28;20052;-53
2022/03/02 13:27:19;;;;;;;15.85;7.00;;;;;;;;;;5074373;28;20020;-52
2022/03/02 13:29:49;;;;;;;19.25;7.53;;;;;;;;;;5074256;28;20035;-52
2022/03/02 13:32:18;;;;;;;14.98;8.57;;;;;;;;;;5074448;28;20056;-51
2022/03/02 13:35:02;;;;;;;17.48;7.50;;;;;;;;;;5074207;28;20042;-47
2022/03/02 13:37:47;;;;;;;13.32;8.25;;;;;;;;;;5074089;28;20024;-51
2022/03/02 13:40:39;;;;;;;16.67;8.85;;;;;;;;;;5074395;28;20099;-53
2022/03/02 13:43:05;;;;;;;15.95;8.30;;;;;;;;;;5070393;28;20039;-53
2022/03/02 13:45:32;;;;;;;15.85;8.95;;;;;;;;;;5074042;28;20398;-53
2022/03/02 13:48:18;;;;;;;15.77;8.00;;;;;;;;;;5074108;28;20025;-53
2022/03/02 13:51:14;;;;;;;15.38;8.50;;;;;;;;;;5060298;28;20036;-52
2022/03/02 13:53:44;;;;;;;15.48;7.95;;;;;;;;;;4992443;28;20041;-52
2022/03/02 13:56:14;;;;;;;17.52;9.18;;;;;;;;;;4992615;28;20030;-51
2022/03/02 13:58:44;;;;;;;14.18;9.07;;;;;;;;;;4992410;28;20050;-53
2022/03/02 14:01:11;;;;;;;15.93;9.15;;;;;;;;;;4991689;28;20085;-52
2022/03/02 14:03:43;;;;;;;32.63;16.83;;;;;;;;;;4992416;28;20039;-53
2022/03/02 14:06:09;;;;;;;19.45;10.63;;;;;;;;;;4976019;28;20495;-52
2022/03/02 14:08:49;;;;;;;16.25;9.75;;;;;;;;;;4992304;28;20046;-53
2022/03/02 14:11:35;;;;;;;15.40;9.48;;;;;;;;;;4992341;28;20034;-51
2022/03/02 14:14:02;;;;;;;16.30;9.02;;;;;;;;;;4992547;28;20138;-53
2022/03/02 14:16:28;;;;;;;14.98;8.48;;;;;;;;;;4992280;28;20479;-53
2022/03/02 14:19:05;;;;;;;15.57;8.13;;;;;;;;;;4992032;28;20664;-53
2022/03/02 14:21:31;;;;;;;17.30;9.63;;;;;;;;;;4992037;28;20418;-52
2022/03/02 14:23:58;;;;;;;16.92;8.90;;;;;;;;;;4992061;28;20090;-54
2022/03/02 14:26:24;;;;;;;22.58;10.30;;;;;;;;;;4992220;28;20113;-50